Latest Weather Observations for Keith West

IDS60801

Issued at 9:05 am CST Wednesday 3 September 2014 (issued every 30 minutes, with the page automatically refreshed every 10 minutes)

About weather observations | Map of weather stations | Latest weather observations for SA | Other Formats
Station Details ID: 025557 Name: MUNKORA Lat: -36.11 Lon: 140.33 Height: 27.0 m
Data from the previous 72 hours. | See also: Recent months for locations in South Australia
Date/Time
CST
Temp
°C
App
Temp
°C
Dew
Point
Rel
Hum
%
Delta-T
°C
Wind Press
QNH
hPa
Press
MSL
hPa
Rain
since 9 am
mm
Dir
 
Spd
km/h
Gust
km/h
Spd
kts
Gust
kts
03/09:00am 10.0 8.0 7.1 82 1.4 NE 7 11 4 6 1025.2 1025.3 0.0
03/08:30am 8.3 6.4 6.8 90 0.7 NE 6 7 3 4 1025.1 1025.2 0.0
03/08:00am 6.1 4.7 5.4 95 0.3 NNW 2 4 1 2 1025.2 1025.3 0.0
03/07:30am 3.4 1.9 3.0 97 0.2 CALM 0 0 0 0 1025.3 1025.4 0.0
03/07:00am 2.3 -0.1 1.9 97 0.2 WSW 4 6 2 3 1025.2 1025.3 0.0
03/06:30am 2.6 0.6 2.2 97 0.2 WSW 2 4 1 2 1025.5 1025.6 0.0
03/06:00am 2.1 0.0 1.7 97 0.2 SW 2 6 1 3 1025.3 1025.4 0.0
03/05:30am 3.1 1.5 2.7 97 0.2 CALM 0 0 0 0 1025.0 1025.1 0.0
03/05:00am 2.9 1.3 2.5 97 0.2 CALM 0 0 0 0 1025.0 1025.1 0.0
03/04:30am 1.8 -0.3 1.4 97 0.2 WSW 2 7 1 4 1024.9 1025.0 0.0
03/04:00am 1.6 -0.2 1.2 97 0.2 CALM 0 0 0 0 1024.5 1024.6 0.0
03/03:30am 2.1 0.4 1.7 97 0.2 CALM 0 0 0 0 1024.7 1024.8 0.0
03/03:00am 1.1 -0.8 0.5 96 0.2 CALM 0 0 0 0 1025.0 1025.1 0.0
03/02:30am 1.4 -1.2 1.0 97 0.1 SE 4 4 2 2 1025.4 1025.5 0.0
03/02:00am 1.0 -0.9 0.4 96 0.2 CALM 0 0 0 0 1025.7 1025.8 0.0
03/01:30am 0.8 -1.2 0.2 96 0.2 CALM 0 0 0 0 1026.0 1026.1 0.0
03/01:00am 0.7 -1.3 0.0 95 0.3 CALM 0 0 0 0 1025.9 1026.0 0.0
03/12:30am 1.6 -0.3 0.7 94 0.3 CALM 0 2 0 1 1026.1 1026.2 0.0
03/12:00am 4.0 1.4 3.3 95 0.3 SE 6 6 3 3 1026.2 1026.3 0.0
 
Date/Time
CST
Temp
°C
App
Temp
°C
Dew
Point
Rel
Hum
%
Delta-T
°C
Wind Press
QNH
hPa
Press
MSL
hPa
Rain
since 9 am
mm
Dir
 
Spd
km/h
Gust
km/h
Spd
kts
Gust
kts
02/11:30pm 3.7 0.8 2.5 92 0.5 SE 7 9 4 5 1026.3 1026.4 0.0
02/11:00pm 4.6 1.1 3.6 93 0.4 S 11 13 6 7 1026.4 1026.5 0.0
02/10:30pm 4.2 0.6 3.2 93 0.4 S 11 13 6 7 1026.5 1026.6 0.0
02/10:00pm 5.2 2.6 4.3 94 0.4 SSW 7 9 4 5 1026.7 1026.8 0.0
02/09:30pm 5.1 2.4 3.8 91 0.5 SSW 7 9 4 5 1026.4 1026.5 0.0
02/09:00pm 5.6 2.2 4.1 90 0.6 S 11 13 6 7 1026.1 1026.2 0.0
02/08:30pm 6.2 3.6 4.4 88 0.8 S 7 9 4 5 1026.0 1026.1 0.0
02/08:00pm 6.9 3.6 4.7 86 1.0 SSW 11 15 6 8 1026.1 1026.2 0.0
02/07:30pm 7.6 4.4 5.2 85 1.1 SSW 11 17 6 9 1025.7 1025.8 0.0
02/07:00pm 8.2 4.7 5.5 83 1.2 SSW 13 19 7 10 1025.5 1025.6 0.0
02/06:30pm 8.7 5.2 5.6 81 1.4 SSW 13 17 7 9 1025.2 1025.3 0.0
02/06:00pm 9.3 6.2 5.5 77 1.7 SW 11 15 6 8 1025.0 1025.1 0.0
02/05:30pm 10.6 8.1 6.4 75 2.0 SSW 9 13 5 7 1024.4 1024.5 0.0
02/05:00pm 11.8 8.5 6.5 70 2.5 SSW 13 19 7 10 1023.9 1023.9 0.0
02/04:30pm 12.7 9.5 7.0 68 2.7 SSW 13 19 7 10 1023.8 1023.8 0.0
02/04:00pm 13.5 9.5 6.6 63 3.3 SW 17 22 9 12 1023.6 1023.6 0.0
02/03:30pm 12.6 8.7 7.1 69 2.6 SW 17 20 9 11 1023.4 1023.4 0.0
02/03:00pm 13.4 8.5 6.7 64 3.2 SW 22 32 12 17 1023.3 1023.3 0.0
02/02:30pm 13.2 10.6 7.9 70 2.6 WSW 11 17 6 9 1023.2 1023.2 0.0
02/02:00pm 13.3 6.2 6.4 63 3.3 SSW 33 43 18 23 1023.1 1023.1 0.0
02/01:58pm 15.1 8.3 7.9 62 3.6 SSW 33 43 18 23 1023.0 1023.0 0.0
02/01:30pm 15.1 11.5 6.7 57 4.1 S 15 22 8 12 1023.1 1023.1 0.0
02/01:00pm 14.6 10.5 6.4 58 4.0 SW 17 22 9 12 1023.1 1023.1 0.0
02/12:30pm 14.7 10.3 7.3 61 3.6 S 20 32 11 17 1023.3 1023.3 0.0
02/12:00pm 13.4 8.7 5.3 58 3.8 S 19 26 10 14 1023.4 1023.4 0.0
02/11:30am 13.2 8.7 6.8 65 3.1 S 20 30 11 16 1023.7 1023.7 0.0
02/11:00am 14.1 11.1 7.6 65 3.2 S 13 22 7 12 1023.9 1023.9 0.0
02/10:30am 12.7 8.4 7.2 69 2.6 S 19 24 10 13 1024.1 1024.1 0.0
02/10:00am 12.3 8.0 7.8 74 2.2 S 20 26 11 14 1024.0 1024.0 0.0
02/09:30am 11.4 6.9 7.1 75 2.0 S 20 30 11 16 1023.9 1023.9 0.0
02/09:00am 10.6 7.2 7.5 81 1.5 S 15 22 8 12 1023.6 1023.6 2.2
02/08:30am 9.4 5.9 7.0 85 1.1 SSW 15 19 8 10 1023.3 1023.3 2.2
02/08:00am 7.8 5.2 6.1 89 0.8 SSW 9 15 5 8 1023.0 1023.0 2.2
02/07:30am 5.1 3.5 4.4 95 0.3 WSW 2 6 1 3 1022.5 1022.5 2.2
02/07:00am 2.5 0.8 1.9 96 0.2 CALM 0 0 0 0 1022.0 1022.0 2.2
02/06:30am 2.8 -0.2 2.2 96 0.2 WSW 7 7 4 4 1021.3 1021.3 2.2
02/06:00am 3.7 1.1 3.0 95 0.3 WSW 6 7 3 4 1020.8 1020.8 2.2
02/05:30am 4.4 1.7 3.7 95 0.3 WSW 7 9 4 5 1020.2 1020.2 2.2
02/05:00am 4.3 1.2 3.6 95 0.3 WSW 9 13 5 7 1019.7 1019.7 2.2
02/04:30am 4.8 1.7 3.8 93 0.4 WSW 9 11 5 6 1019.1 1019.1 2.2
02/04:00am 6.1 3.9 5.2 94 0.4 SW 6 7 3 4 1018.7 1018.7 2.2
02/03:30am 6.3 4.1 5.3 93 0.4 WSW 6 7 3 4 1018.6 1018.6 2.2
02/03:00am 6.3 3.5 5.3 93 0.4 W 9 11 5 6 1018.4 1018.4 2.2
02/02:30am 6.1 2.9 5.1 93 0.4 W 11 13 6 7 1018.4 1018.4 2.2
02/02:00am 6.7 3.5 5.3 91 0.6 W 11 13 6 7 1018.2 1018.2 2.2
02/01:30am 7.5 5.4 6.6 94 0.4 WSW 7 9 4 5 1018.0 1018.0 2.2
02/01:00am 7.3 4.7 6.2 93 0.5 WSW 9 11 5 6 1017.8 1017.8 2.2
02/12:30am 7.8 5.3 6.6 92 0.6 WSW 9 15 5 8 1017.6 1017.6 1.6
02/12:00am 8.3 5.6 7.2 93 0.5 SW 11 15 6 8 1017.7 1017.7 0.8
 
Date/Time
CST
Temp
°C
App
Temp
°C
Dew
Point
Rel
Hum
%
Delta-T
°C
Wind Press
QNH
hPa
Press
MSL
hPa
Rain
since 9 am
mm
Dir
 
Spd
km/h
Gust
km/h
Spd
kts
Gust
kts
01/11:30pm 8.2 6.4 7.0 92 0.6 WSW 6 7 3 4 1017.4 1017.4 0.8
01/11:00pm 8.4 6.0 7.2 92 0.6 WSW 9 11 5 6 1017.2 1017.2 0.8
01/10:30pm 8.4 6.0 7.2 92 0.6 W 9 11 5 6 1016.8 1016.8 0.8
01/10:00pm 8.3 5.5 7.1 92 0.6 WNW 11 15 6 8 1016.6 1016.6 0.8
01/09:30pm 8.0 5.9 6.6 91 0.6 W 7 11 4 6 1016.5 1016.5 0.8
01/09:00pm 8.1 5.2 6.6 90 0.7 WNW 11 13 6 7 1016.2 1016.2 0.8
01/08:30pm 7.5 4.4 5.6 88 0.8 WNW 11 17 6 9 1016.0 1016.0 0.8
01/08:00pm 4.1 1.1 2.3 88 0.7 WNW 7 9 4 5 1015.7 1015.7 0.8
01/07:30pm 5.5 2.3 3.2 85 1.0 W 9 9 5 5 1015.5 1015.5 0.8
01/07:00pm 6.2 3.5 3.5 83 1.1 W 7 9 4 5 1015.1 1015.1 0.8
01/06:30pm 7.3 4.6 3.5 77 1.6 WSW 7 9 4 5 1014.6 1014.6 0.8
01/06:00pm 8.5 5.1 3.9 73 2.0 SW 11 17 6 9 1014.0 1014.0 0.8
01/05:30pm 10.3 6.0 5.1 70 2.4 WSW 17 26 9 14 1013.7 1013.7 0.8
01/05:00pm 12.3 7.4 5.2 62 3.3 WSW 20 26 11 14 1013.2 1013.2 0.8
01/04:30pm 13.2 6.9 5.9 61 3.5 W 28 37 15 20 1012.8 1012.8 0.8
01/04:00pm 14.1 8.6 7.6 65 3.2 W 26 35 14 19 1012.6 1012.6 0.8
01/03:30pm 14.5 9.1 8.0 65 3.2 SW 26 39 14 21 1012.2 1012.2 0.8
01/03:00pm 13.9 9.4 10.1 78 2.0 WSW 24 35 13 19 1012.0 1012.0 0.8
01/02:50pm 12.5 7.0 9.1 80 1.7 WSW 28 46 15 25 1012.0 1012.0 0.8
01/02:30pm 13.3 6.8 8.2 71 2.5 SW 32 44 17 24 1011.7 1011.7 0.8
01/02:00pm 14.9 8.8 8.2 64 3.4 WSW 30 41 16 22 1011.5 1011.5 0.8
01/01:30pm 15.3 9.4 10.3 72 2.6 WSW 32 46 17 25 1011.5 1011.5 0.8
01/01:00pm 14.8 8.7 9.6 71 2.7 WSW 32 41 17 22 1011.5 1011.5 0.6
01/12:30pm 14.7 9.2 10.5 76 2.2 SW 30 39 16 21 1011.6 1011.6 0.4
01/12:00pm 13.0 6.5 8.1 72 2.4 WSW 32 46 17 25 1011.7 1011.7 0.4
01/11:30am 15.3 11.3 11.9 80 1.8 W 24 32 13 17 1011.5 1011.5 0.4
01/11:00am 14.2 9.9 10.8 80 1.8 W 24 32 13 17 1011.7 1011.7 0.4
01/10:30am 14.2 10.5 10.2 77 2.1 W 20 33 11 18 1011.5 1011.5 0.0
01/10:00am 14.1 11.8 11.8 86 1.2 WNW 15 24 8 13 1011.8 1011.8 0.0
01/09:30am 12.9 10.8 11.3 90 0.8 WNW 13 19 7 10 1012.0 1012.0 0.0
01/09:00am 12.2 10.4 10.8 91 0.7 WNW 11 17 6 9 1011.8 1011.8 1.8
01/08:30am 11.8 9.5 10.5 92 0.7 W 13 19 7 10 1011.5 1011.5 1.8
01/08:00am 11.3 9.4 10.5 95 0.4 WNW 11 15 6 8 1011.1 1011.1 1.8
01/07:30am 11.0 8.6 10.2 95 0.4 NW 13 17 7 9 1010.9 1010.9 1.8
01/07:00am 10.8 8.4 9.9 94 0.5 NW 13 17 7 9 1010.7 1010.7 1.8
01/06:30am 10.7 8.2 9.8 94 0.5 NW 13 15 7 8 1010.4 1010.4 1.8
01/06:00am 10.7 8.2 9.8 94 0.5 NNW 13 15 7 8 1009.9 1009.9 1.8
01/05:30am 10.8 8.7 9.9 94 0.5 NNW 11 15 6 8 1009.8 1009.8 1.8
01/05:00am 10.8 8.7 9.7 93 0.6 NNW 11 13 6 7 1009.8 1009.8 1.8
01/04:30am 10.9 9.6 9.8 93 0.6 NNW 7 11 4 6 1009.8 1009.8 1.4
01/04:00am 11.0 9.7 9.8 92 0.6 N 7 9 4 5 1009.9 1009.9 1.2
01/03:30am 11.3 10.0 10.0 92 0.7 NW 7 9 4 5 1010.0 1010.0 0.8
01/03:00am 11.5 9.9 10.1 91 0.7 W 9 11 5 6 1010.0 1010.0 0.6
01/02:30am 12.1 8.6 10.2 88 1.0 W 19 24 10 13 1010.2 1010.2 0.0
01/02:00am 12.9 9.9 10.8 87 1.1 W 17 24 9 13 1010.3 1010.3 0.0
01/01:30am 13.8 10.8 11.8 88 1.1 WSW 19 24 10 13 1010.2 1010.2 0.0
01/01:00am 13.5 12.3 11.6 88 1.0 W 9 13 5 7 1010.1 1010.1 0.0
01/12:30am 13.1 11.6 10.5 84 1.4 W 9 13 5 7 1009.8 1009.8 0.0
01/12:00am 13.5 11.8 9.9 79 1.9 W 9 15 5 8 1009.2 1009.2 0.0
 
Date/Time
CST
Temp
°C
App
Temp
°C
Dew
Point
Rel
Hum
%
Delta-T
°C
Wind Press
QNH
hPa
Press
MSL
hPa
Rain
since 9 am
mm
Dir
 
Spd
km/h
Gust
km/h
Spd
kts
Gust
kts
31/11:30pm 12.9 10.4 8.0 72 2.4 W 11 15 6 8 1009.5 1009.5 0.0
31/11:00pm 12.9 9.7 6.9 67 2.9 WNW 13 17 7 9 1009.1 1009.1 0.0
31/10:30pm 12.0 10.3 6.1 67 2.8 NW 4 7 2 4 1008.6 1008.6 0.0
31/10:00pm 13.5 11.2 5.9 60 3.6 N 7 9 4 5 1009.0 1009.0 0.0
31/09:30pm 14.7 11.1 5.2 53 4.5 WNW 13 17 7 9 1009.5 1009.5 0.0
31/09:00pm 14.7 11.9 5.2 53 4.5 N 9 22 5 12 1009.5 1009.5 0.0
31/08:30pm 14.1 11.4 5.5 56 4.1 N 9 11 5 6 1009.7 1009.7 0.0
31/08:00pm 13.4 10.2 5.1 57 3.9 NNE 11 13 6 7 1009.4 1009.4 0.0
31/07:30pm 14.0 11.6 5.4 56 4.1 N 7 9 4 5 1009.9 1009.9 0.0
31/07:00pm 13.9 11.3 6.3 60 3.6 N 9 11 5 6 1010.1 1010.1 0.0
31/06:30pm 15.6 13.0 6.1 53 4.6 NNW 9 11 5 6 1010.0 1010.0 0.0
31/06:00pm 17.6 13.5 4.6 42 6.2 N 15 19 8 10 1009.9 1009.9 0.0
31/05:30pm 19.1 14.0 3.3 35 7.4 N 19 22 10 12 1009.6 1009.6 0.0
31/05:00pm 19.3 14.7 3.9 36 7.3 N 17 22 9 12 1009.0 1009.0 0.0
31/04:30pm 19.2 16.0 6.7 44 6.3 N 13 17 7 9 1009.5 1009.5 0.0
31/04:00pm 18.9 15.6 6.4 44 6.2 N 13 15 7 8 1010.1 1010.1 0.0
31/03:30pm 19.4 16.9 8.4 49 5.7 N 11 13 6 7 1010.6 1010.6 0.0
31/03:00pm 20.0 16.5 7.1 43 6.6 NNW 15 19 8 10 1011.2 1011.2 0.0
31/02:30pm 20.9 17.2 6.1 38 7.4 N 15 20 8 11 1011.2 1011.2 0.0
31/02:00pm 21.2 15.8 4.7 34 8.1 N 22 30 12 16 1011.5 1011.5 0.0
31/01:30pm 21.0 15.4 3.7 32 8.3 N 22 32 12 17 1012.0 1012.0 0.0
31/01:00pm 20.5 14.9 3.7 33 8.0 NNW 22 30 12 16 1012.4 1012.4 0.0
31/12:30pm 21.0 14.4 2.3 29 8.7 NNW 26 35 14 19 1013.1 1013.1 0.0
31/12:00pm 20.9 14.7 4.5 34 8.0 NNW 26 35 14 19 1013.6 1013.6 0.0
31/11:30am 21.6 15.5 4.7 33 8.3 NNW 26 37 14 20 1014.0 1014.0 0.0
31/11:00am 20.3 16.0 7.0 42 6.8 N 19 26 10 14 1014.2 1014.2 0.0
31/10:30am 19.2 15.0 5.6 41 6.7 NNW 17 24 9 13 1014.4 1014.4 0.0
31/10:00am 19.2 15.0 7.3 46 6.0 N 19 28 10 15 1014.8 1014.8 0.0
31/09:30am 17.1 12.6 6.3 49 5.3 N 19 24 10 13 1015.3 1015.3 0.0

Other Formats:

Comma delimited format used in spreadsheet applications
http://www.bom.gov.au/fwo/IDS60801/IDS60801.95815.axf

JavaScript Object Notation format (JSON) in row-major order
http://www.bom.gov.au/fwo/IDS60801/IDS60801.95815.json